Daily Weather Observations for Burdell (Townsville)
For Wednesday 6th February 2019

This table is designed for ease of comparison to Bureau of Meteorology recorded weather data.

Station Details Name: BURDELL Lat: -19.24 Lon: 146.69 Height: 8.5 m
Date/Time
EST
Temp
°C
App
Temp
°C
Dew
Point
°C
Rel
Hum
%
Delta-T
°C
Wind Press
QNH
hPa
Press
MSL
hPa
Rain since
9am
mm
Dir  Spd
km/h
Gust
km/h
Spd
kts
Gust
kts
06/11:30pm 26.3 31.0 26.0 98 0.2 SE 16 26 8 14 998.0 998.0 5.8
06/11:00pm 26.4 32.3 26.1 98 0.2 SE 6 10 4 6 998.3 998.3 5.8
06/10:30pm 26.4 31.6 26.1 98 0.2 SE 11 13 6 7 998.4 998.4 5.8
06/10:00pm 26.6 32.3 26.3 98 0.2 SE 14 23 7 13 998.0 998.0 5.8
06/09:30pm 26.6 31.7 26.1 97 0.4 SE 11 13 6 7 997.6 997.6 5.3
06/08:30pm 27.0 32.0 25.8 93 0.9 ESE 10 16 6 9 997.5 997.5 5.3
06/08:00pm 26.9 32.2 25.9 94 0.7 ESE 13 32 7 17 997.4 997.4 5.3
06/07:30pm 27.0 31.6 25.8 93 0.9 ESE 14 26 8 14 996.7 996.7 5.3
06/07:00pm 27.2 31.8 25.8 92 1.0 SE 14 21 8 11 996.5 996.5 5.3
06/06:30pm 27.4 32.8 25.8 91 1.2 ESE 11 18 6 10 996.5 996.5 5.3
06/06:00pm 27.7 32.8 26.0 91 1.3 ESE 13 21 7 11 996.5 996.5 5.3
06/05:30pm 27.8 33.7 26.0 90 1.4 ESE 7 16 4 9 995.9 995.9 5.3
06/05:00pm 27.9 33.6 26.3 91 1.2 ESE 11 21 6 11 995.8 995.8 5.3
06/04:30pm 28.4 34.6 26.2 89 1.7 ENE 13 21 7 11 995.8 995.8 5.3
06/04:00pm 29.8 38.5 27.0 85 2.1 NE 14 18 7 10 995.4 995.4 5.3
06/03:30pm 29.4 37.9 27.2 90 1.7 ENE 14 37 8 20 995.4 995.4 5.3
06/03:00pm 29.2 37.3 27.1 89 1.6 NE 11 21 6 11 995.6 995.6 5.3
06/02:30pm 29.4 37.7 27.0 88 1.8 ENE 12 23 7 13 995.6 995.6 5.3
06/02:00pm 29.3 37.3 26.9 88 1.8 ENE 10 18 5 10 995.9 995.9 5.3
06/01:30pm 29.6 37.8 27.0 87 2.0 ENE 15 32 8 17 996.3 996.3 5.3
06/01:00pm 29.7 39.0 27.5 88 1.7 ENE 18 29 10 16 996.6 996.6 5.3
06/12:30pm 29.3 38.4 27.7 91 1.2 ENE 22 29 12 16 997.2 997.2 5.3
06/12:00pm 28.8 36.6 27.3 93 1.1 E 26 32 14 17 997.7 997.7 5.3
06/11:30am 27.0 32.1 26.7 98 0.2 E 16 29 9 16 998.1 998.1 5.3
06/11:00am 26.1 30.3 26.1 100 0.0 ESE 20 29 11 16 998.5 998.5 5.0
06/10:30am 25.6 29.7 25.6 100 0.0 ESE 16 32 9 17 999.0 999.0 3.8
06/10:00am 25.4 26.7 25.4 100 -0.0 E 35 45 19 24 999.0 999.0 1.0
06/09:30am 25.4 28.6 25.4 100 0.0 E 21 37 11 20 998.7 998.7 1.0
06/09:00am 24.9 29.2 24.9 100 -0.0 ESE 17 32 9 17 998.3 998.3 0.2
06/08:30am 24.9 27.8 24.9 100 0.0 SE 20 29 11 16 998.2 998.2 128.1
06/08:00am 24.9 27.0 24.9 100 0.0 E 26 34 14 18 998.1 998.1 116.1
06/07:30am 24.9 27.1 24.9 100 0.0 ENE 23 32 13 17 997.8 997.8 95.0
06/07:00am 25.0 28.0 25.0 100 -0.0 ESE 24 34 13 18 997.3 997.3 90.5
06/06:30am 25.2 28.9 25.2 100 0.0 SE 19 26 10 14 997.1 997.1 89.2
06/06:00am 25.4 29.6 25.4 100 0.0 SE 15 18 8 10 996.8 996.8 71.9
06/05:30am 25.2 27.7 25.2 100 -0.0 SE 22 29 12 16 996.1 996.1 70.6
06/05:00am 25.1 27.6 25.1 100 0.0 ESE 23 32 12 17 996.3 996.3 70.4
06/04:30am 25.3 29.0 25.3 100 -0.0 SE 20 29 11 16 996.3 996.3 65.6
06/04:00am 25.1 28.3 25.1 100 -0.0 SE 23 37 12 20 996.1 996.1 62.8
06/03:30am 25.4 29.3 25.4 100 0.0 SE 17 23 9 13 996.1 996.1 59.0
06/03:00am 25.1 30.2 25.1 100 0.0 SSE 11 23 6 13 996.4 996.4 43.5
06/02:30am 24.8 28.5 24.8 100 0.0 SSE 25 37 14 20 996.6 996.6 32.3
06/02:00am 25.3 29.5 25.3 100 0.0 SE 14 21 8 11 996.8 996.8 28.2
06/01:30am 25.1 28.5 25.1 100 0.0 SE 17 26 9 14 997.3 997.3 26.7
06/01:00am 25.6 27.6 25.6 100 -0.0 E 27 34 15 18 997.5 997.5 19.6
06/12:30am 25.8 29.4 25.8 100 -0.0 ESE 26 42 14 23 998.0 998.0 16.3
06/12:00am 25.5 29.0 25.5 100 0.0 SE 20 26 11 14 998.4 998.4 14.0
 


NOTE: The apparent temperature specified in the table above is calculated using both the Heat Index and Steadman method. This differs to the Bureau of Meteorology's calculation which uses the Steadman method alone.